createdAt,value
2023-10-20T00:00:39.144Z,15.50
2023-10-20T00:03:07.962Z,15.50
2023-10-20T00:05:36.897Z,15.50
2023-10-20T00:08:07.776Z,15.50
2023-10-20T00:10:37.858Z,15.50
2023-10-20T00:13:06.844Z,15.50
2023-10-20T00:15:36.247Z,15.50
2023-10-20T00:18:05.532Z,15.50
2023-10-20T00:20:34.229Z,15.50
2023-10-20T00:23:02.850Z,15.60
2023-10-20T00:25:32.830Z,15.60
2023-10-20T00:28:01.404Z,15.60
2023-10-20T00:30:29.985Z,15.60
2023-10-20T00:33:00.213Z,15.60
2023-10-20T00:35:29.959Z,15.60
2023-10-20T00:37:58.565Z,15.60
2023-10-20T00:40:28.488Z,15.60
2023-10-20T00:42:58.504Z,15.60
2023-10-20T00:45:27.110Z,15.60
2023-10-20T00:47:56.096Z,15.60
2023-10-20T00:50:24.981Z,15.60
2023-10-20T00:52:54.634Z,15.60
2023-10-20T00:55:24.697Z,15.60
2023-10-20T00:57:55.981Z,15.60
2023-10-20T01:00:26.052Z,15.60
2023-10-20T01:02:55.359Z,15.60
2023-10-20T01:05:24.498Z,15.60
2023-10-20T01:07:53.598Z,15.60
2023-10-20T01:10:23.463Z,15.60
2023-10-20T01:12:52.168Z,15.60
2023-10-20T01:15:20.914Z,15.60
2023-10-20T01:17:51.009Z,15.60
2023-10-20T01:20:19.865Z,15.60
2023-10-20T01:22:48.509Z,15.60
2023-10-20T01:25:18.605Z,15.60
2023-10-20T01:27:47.958Z,15.60
2023-10-20T01:30:16.710Z,15.60
2023-10-20T01:32:46.397Z,15.60
2023-10-20T01:35:15.199Z,15.60
2023-10-20T01:37:44.328Z,15.60
2023-10-20T01:40:14.277Z,15.60
2023-10-20T01:42:44.149Z,15.60
2023-10-20T01:45:12.775Z,15.60
2023-10-20T01:47:41.557Z,15.60
2023-10-20T01:50:11.526Z,15.70
2023-10-20T01:52:40.393Z,15.70
2023-10-20T01:55:10.555Z,15.70
2023-10-20T01:57:39.229Z,15.70
2023-10-20T02:00:14.378Z,15.70
2023-10-20T02:02:43.987Z,15.70
2023-10-20T02:05:13.584Z,15.70
2023-10-20T02:07:42.338Z,15.70
2023-10-20T02:10:11.774Z,15.70
2023-10-20T02:12:40.396Z,15.70
2023-10-20T02:15:11.014Z,15.70
2023-10-20T02:17:40.152Z,15.70
2023-10-20T02:20:09.894Z,15.70
2023-10-20T02:22:38.760Z,15.70
2023-10-20T02:25:09.832Z,15.70
2023-10-20T02:27:40.588Z,15.70
2023-10-20T02:30:13.568Z,15.70
2023-10-20T02:32:42.554Z,15.70
2023-10-20T02:35:12.249Z,15.70
2023-10-20T02:37:41.179Z,15.70
2023-10-20T02:40:11.738Z,15.70
2023-10-20T02:42:40.448Z,15.70
2023-10-20T02:45:12.300Z,15.70
2023-10-20T02:47:41.195Z,15.80
2023-10-20T02:50:11.599Z,15.70
2023-10-20T02:52:40.804Z,15.70
2023-10-20T02:55:10.130Z,15.70
2023-10-20T02:57:38.752Z,15.70
2023-10-20T03:00:11.801Z,15.70
2023-10-20T03:02:41.921Z,15.70
2023-10-20T03:05:11.155Z,15.70
2023-10-20T03:07:39.847Z,15.70
2023-10-20T03:10:09.505Z,15.70
2023-10-20T03:12:38.112Z,15.70
2023-10-20T03:15:08.879Z,15.70
2023-10-20T03:17:37.700Z,15.70
2023-10-20T03:20:10.467Z,15.70
2023-10-20T03:22:39.307Z,15.70
2023-10-20T03:25:10.094Z,15.80
2023-10-20T03:27:39.824Z,15.70
2023-10-20T03:30:09.505Z,15.80
2023-10-20T03:32:38.250Z,15.70
2023-10-20T03:35:09.551Z,15.70
2023-10-20T03:37:39.336Z,15.70
2023-10-20T03:40:14.331Z,15.70
2023-10-20T03:42:44.381Z,15.80
2023-10-20T03:45:18.990Z,15.70
2023-10-20T03:47:50.428Z,15.70
2023-10-20T03:50:20.451Z,15.70
2023-10-20T03:52:50.090Z,15.80
2023-10-20T03:55:18.866Z,15.80
2023-10-20T03:57:48.387Z,15.80
2023-10-20T04:00:18.775Z,15.80
2023-10-20T04:02:48.859Z,15.80
2023-10-20T04:05:18.058Z,15.80
2023-10-20T04:07:48.098Z,15.80
2023-10-20T04:10:19.781Z,15.80
2023-10-20T04:12:48.790Z,15.80
2023-10-20T04:15:18.169Z,15.80
2023-10-20T04:17:52.751Z,15.80
2023-10-20T04:20:21.771Z,15.80
2023-10-20T04:22:52.253Z,15.80
2023-10-20T04:25:21.955Z,15.80
2023-10-20T04:27:52.214Z,15.80
2023-10-20T04:30:38.601Z,15.80
2023-10-20T04:33:25.125Z,15.80
2023-10-20T04:36:11.706Z,15.80
2023-10-20T04:38:58.924Z,15.80
2023-10-20T04:41:45.003Z,15.80
2023-10-20T04:44:31.345Z,15.80
2023-10-20T04:47:22.896Z,15.80
2023-10-20T04:50:20.876Z,15.80
2023-10-20T04:53:11.047Z,15.80
2023-10-20T04:55:57.566Z,15.80
2023-10-20T04:58:35.935Z,15.80
2023-10-20T05:01:08.813Z,15.80
2023-10-20T05:03:47.145Z,15.80
2023-10-20T05:06:23.948Z,15.70
2023-10-20T05:08:52.847Z,15.80
2023-10-20T05:11:22.912Z,15.70
2023-10-20T05:13:52.220Z,15.70
2023-10-20T05:16:22.952Z,15.70
2023-10-20T05:18:51.844Z,15.70
2023-10-20T05:21:20.451Z,15.70
2023-10-20T05:23:51.089Z,15.70
2023-10-20T05:26:20.504Z,15.70
2023-10-20T05:28:50.526Z,15.70
2023-10-20T05:31:24.976Z,15.70
2023-10-20T05:33:53.894Z,15.70
2023-10-20T05:36:22.441Z,15.70
2023-10-20T05:38:51.082Z,15.70
2023-10-20T05:41:19.894Z,15.70
2023-10-20T05:43:53.479Z,15.70
2023-10-20T05:46:22.780Z,15.70
2023-10-20T05:48:51.736Z,15.70
2023-10-20T05:51:22.720Z,15.70
2023-10-20T05:53:51.421Z,15.70
2023-10-20T05:56:20.038Z,15.70
2023-10-20T05:58:50.012Z,15.70
2023-10-20T06:01:19.504Z,15.70
2023-10-20T06:03:48.488Z,15.70
2023-10-20T06:06:17.385Z,15.70
2023-10-20T06:08:45.963Z,15.70
2023-10-20T06:11:14.638Z,15.70
2023-10-20T06:13:43.276Z,15.70
2023-10-20T06:16:14.234Z,15.70
2023-10-20T06:18:44.244Z,15.70
2023-10-20T06:21:14.975Z,15.70
2023-10-20T06:23:44.005Z,15.70
2023-10-20T06:26:13.517Z,15.70
2023-10-20T06:28:42.438Z,15.70
2023-10-20T06:31:28.862Z,15.70
2023-10-20T06:34:02.091Z,15.70
2023-10-20T06:36:31.332Z,15.70
2023-10-20T06:39:00.270Z,15.70
2023-10-20T06:41:28.929Z,15.70
2023-10-20T06:43:57.942Z,15.70
2023-10-20T06:46:28.379Z,15.70
2023-10-20T06:48:58.484Z,15.70
2023-10-20T06:51:27.361Z,15.70
2023-10-20T06:53:55.965Z,15.70
2023-10-20T06:56:27.967Z,15.70
2023-10-20T06:58:57.436Z,15.70
2023-10-20T07:01:27.907Z,15.70
2023-10-20T07:03:58.196Z,15.60
2023-10-20T07:06:27.048Z,15.60
2023-10-20T07:08:55.966Z,15.60
2023-10-20T07:11:25.413Z,15.70
2023-10-20T07:13:54.032Z,15.60
2023-10-20T07:16:22.678Z,15.70
2023-10-20T07:18:51.275Z,15.70
2023-10-20T07:21:21.261Z,15.70
2023-10-20T07:23:49.913Z,15.70
2023-10-20T07:26:22.160Z,15.60
2023-10-20T07:28:50.808Z,15.60
2023-10-20T07:31:22.833Z,15.70
2023-10-20T07:33:51.744Z,15.70
2023-10-20T07:36:21.772Z,15.60
2023-10-20T07:38:50.778Z,15.70
2023-10-20T07:41:19.620Z,15.60
2023-10-20T07:43:48.313Z,15.60
2023-10-20T07:46:18.446Z,15.60
2023-10-20T07:48:47.508Z,15.60
2023-10-20T07:51:16.355Z,15.60
2023-10-20T07:53:46.628Z,15.70
2023-10-20T07:56:15.358Z,15.70
2023-10-20T07:58:44.018Z,15.70
2023-10-20T08:01:12.710Z,15.70
2023-10-20T08:03:46.772Z,15.70
2023-10-20T08:06:16.160Z,15.70
2023-10-20T08:08:46.545Z,15.70
2023-10-20T08:11:15.205Z,15.80
2023-10-20T08:13:43.850Z,15.70
2023-10-20T08:16:12.539Z,15.80
2023-10-20T08:18:41.239Z,15.80
2023-10-20T08:21:11.777Z,15.80
2023-10-20T08:23:40.689Z,15.80
2023-10-20T08:26:16.404Z,15.90
2023-10-20T08:28:45.230Z,15.90
2023-10-20T08:31:15.556Z,15.90
2023-10-20T08:33:44.337Z,15.90
2023-10-20T08:36:14.219Z,15.90
2023-10-20T08:38:45.028Z,15.90
2023-10-20T08:41:15.907Z,15.90
2023-10-20T08:43:45.946Z,15.90
2023-10-20T08:46:17.280Z,15.90
2023-10-20T08:48:47.173Z,15.90
2023-10-20T08:51:18.083Z,15.90
2023-10-20T08:53:48.052Z,15.90
2023-10-20T08:56:18.154Z,15.90
2023-10-20T08:58:48.403Z,15.90
2023-10-20T09:01:18.130Z,15.90
2023-10-20T09:03:49.587Z,15.90
2023-10-20T09:06:18.816Z,15.90
2023-10-20T09:08:51.151Z,15.90
2023-10-20T09:11:26.262Z,15.90
2023-10-20T09:13:58.132Z,15.90
2023-10-20T09:16:27.218Z,15.90
2023-10-20T09:18:56.996Z,15.90
2023-10-20T09:21:27.263Z,15.90
2023-10-20T09:23:57.633Z,15.90
2023-10-20T09:26:29.279Z,15.90
2023-10-20T09:28:59.081Z,15.90
2023-10-20T09:31:30.189Z,15.90
2023-10-20T09:33:59.286Z,15.90
2023-10-20T09:36:30.074Z,15.90
2023-10-20T09:39:01.035Z,15.90
2023-10-20T09:41:31.798Z,16.00
2023-10-20T09:44:07.292Z,16.00
2023-10-20T09:46:50.782Z,16.00
2023-10-20T09:49:21.799Z,16.00
2023-10-20T09:51:53.993Z,16.00
2023-10-20T09:54:24.147Z,16.00
2023-10-20T09:56:55.368Z,16.00
2023-10-20T09:59:28.662Z,16.00
2023-10-20T10:01:58.579Z,16.00
2023-10-20T10:04:29.632Z,16.00
2023-10-20T10:07:04.812Z,16.00
2023-10-20T10:09:38.928Z,16.00
2023-10-20T10:12:15.484Z,16.00
2023-10-20T10:14:44.542Z,16.00
2023-10-20T10:17:13.630Z,16.10
2023-10-20T10:19:51.912Z,16.10
2023-10-20T10:22:27.757Z,16.10
2023-10-20T10:24:57.686Z,16.10
2023-10-20T10:27:29.572Z,16.10
2023-10-20T10:30:01.629Z,16.10
2023-10-20T10:32:33.590Z,16.10
2023-10-20T10:35:04.396Z,16.10
2023-10-20T10:37:35.056Z,16.20
2023-10-20T10:40:12.173Z,16.20
2023-10-20T10:42:44.310Z,16.20
2023-10-20T10:45:21.114Z,16.30
2023-10-20T10:47:50.293Z,16.30
2023-10-20T10:50:21.545Z,16.30
2023-10-20T10:52:52.388Z,16.30
2023-10-20T10:55:22.378Z,16.40
2023-10-20T10:57:52.965Z,16.40
2023-10-20T11:00:23.031Z,16.40
2023-10-20T11:02:52.290Z,16.40
2023-10-20T11:05:22.598Z,16.40
2023-10-20T11:08:03.543Z,16.40
2023-10-20T11:10:34.362Z,16.40
2023-10-20T11:13:08.534Z,16.40
2023-10-20T11:15:37.520Z,16.40
2023-10-20T11:18:08.601Z,16.40
2023-10-20T11:20:39.856Z,16.40
2023-10-20T11:23:09.248Z,16.30
2023-10-20T11:25:38.879Z,16.30
2023-10-20T11:28:09.354Z,16.30
2023-10-20T11:30:39.790Z,16.30
2023-10-20T11:33:14.934Z,16.30
2023-10-20T11:35:45.414Z,16.30
2023-10-20T11:38:15.719Z,16.30
2023-10-20T11:40:48.553Z,16.30
2023-10-20T11:43:18.656Z,16.30
2023-10-20T11:45:47.345Z,16.30
2023-10-20T11:48:16.027Z,16.30
2023-10-20T11:50:44.767Z,16.30
2023-10-20T11:53:14.002Z,16.30
2023-10-20T11:55:43.185Z,16.30
2023-10-20T11:58:11.836Z,16.30
2023-10-20T12:00:43.426Z,16.30
2023-10-20T12:03:12.171Z,16.30
2023-10-20T12:05:41.209Z,16.30
2023-10-20T12:08:10.188Z,16.30
2023-10-20T12:10:40.367Z,16.30
2023-10-20T12:13:09.868Z,16.30
2023-10-20T12:15:38.796Z,16.30
2023-10-20T12:18:09.018Z,16.30
2023-10-20T12:20:38.660Z,16.30
2023-10-20T12:23:08.117Z,16.30
2023-10-20T12:25:37.250Z,16.30
2023-10-20T12:28:07.138Z,16.30
2023-10-20T12:30:36.851Z,16.30
2023-10-20T12:33:06.684Z,16.40
2023-10-20T12:35:37.062Z,16.40
2023-10-20T12:38:07.830Z,16.40
2023-10-20T12:40:36.712Z,16.40
2023-10-20T12:43:12.321Z,16.50
2023-10-20T12:45:42.755Z,16.50
2023-10-20T12:48:11.932Z,16.50
2023-10-20T12:50:42.681Z,16.60
2023-10-20T12:53:11.551Z,16.60
2023-10-20T12:55:40.622Z,16.60
2023-10-20T12:58:09.715Z,16.60
2023-10-20T13:00:40.999Z,16.60
2023-10-20T13:03:09.943Z,16.60
2023-10-20T13:05:38.961Z,16.60
2023-10-20T13:08:09.326Z,16.60
2023-10-20T13:10:38.550Z,16.60
2023-10-20T13:13:09.955Z,16.60
2023-10-20T13:15:40.307Z,16.60
2023-10-20T13:18:09.750Z,16.60
2023-10-20T13:20:38.609Z,16.60
2023-10-20T13:23:08.723Z,16.60
2023-10-20T13:25:37.329Z,16.60
2023-10-20T13:28:07.216Z,16.60
2023-10-20T13:30:36.269Z,16.60
2023-10-20T13:33:06.075Z,16.60
2023-10-20T13:35:37.428Z,16.60
2023-10-20T13:38:18.032Z,16.60
2023-10-20T13:40:50.890Z,16.60
2023-10-20T13:43:19.863Z,16.60
2023-10-20T13:45:49.365Z,16.60
2023-10-20T13:48:18.300Z,16.60
2023-10-20T13:50:47.312Z,16.70
2023-10-20T13:53:16.211Z,16.70
2023-10-20T13:55:46.100Z,16.70
2023-10-20T13:58:19.070Z,16.70
2023-10-20T14:00:47.768Z,16.70
2023-10-20T14:03:16.556Z,16.70
2023-10-20T14:05:53.772Z,16.60
2023-10-20T14:08:22.859Z,16.60
2023-10-20T14:10:51.733Z,16.60
2023-10-20T14:13:21.884Z,16.60
2023-10-20T14:15:51.658Z,16.60
2023-10-20T14:18:20.915Z,16.50
2023-10-20T14:20:50.098Z,16.50
2023-10-20T14:23:19.046Z,16.50
2023-10-20T14:25:47.688Z,16.50
2023-10-20T14:28:16.352Z,16.50
2023-10-20T14:30:54.423Z,16.50
2023-10-20T14:33:23.820Z,16.50
2023-10-20T14:35:54.458Z,16.50
2023-10-20T14:38:23.273Z,16.50
2023-10-20T14:41:00.887Z,16.40
2023-10-20T14:43:32.843Z,16.40
2023-10-20T14:46:03.889Z,16.40
2023-10-20T14:48:32.962Z,16.40
2023-10-20T14:51:06.777Z,16.40
2023-10-20T14:53:38.115Z,16.30
2023-10-20T14:56:08.138Z,16.30
2023-10-20T14:58:36.848Z,16.30
2023-10-20T15:01:08.876Z,16.30
2023-10-20T15:03:37.786Z,16.30
2023-10-20T15:06:07.644Z,16.30
2023-10-20T15:08:36.339Z,16.30
2023-10-20T15:11:08.018Z,16.20
2023-10-20T15:13:37.330Z,16.20
2023-10-20T15:16:09.083Z,16.20
2023-10-20T15:18:38.061Z,16.20
2023-10-20T15:21:07.443Z,16.20
2023-10-20T15:23:36.117Z,16.20
2023-10-20T15:26:08.094Z,16.20
2023-10-20T15:28:40.277Z,16.10
2023-10-20T15:31:11.080Z,16.10
2023-10-20T15:33:40.147Z,16.10
2023-10-20T15:36:10.717Z,16.10
2023-10-20T15:38:39.882Z,16.10
2023-10-20T15:41:08.708Z,16.10
2023-10-20T15:43:37.465Z,16.10
2023-10-20T15:46:08.570Z,16.10
2023-10-20T15:48:39.018Z,16.10
2023-10-20T15:51:09.089Z,16.10
2023-10-20T15:53:38.196Z,16.10
2023-10-20T15:56:07.952Z,16.10
2023-10-20T15:58:36.615Z,16.10
2023-10-20T16:01:05.913Z,16.10
2023-10-20T16:03:34.964Z,16.10
2023-10-20T16:06:10.005Z,16.10
2023-10-20T16:08:39.005Z,16.00
2023-10-20T16:11:08.148Z,16.00
2023-10-20T16:13:36.954Z,16.00
2023-10-20T16:16:06.373Z,16.00
2023-10-20T16:18:35.200Z,16.00
2023-10-20T16:21:05.587Z,16.00
2023-10-20T16:23:34.224Z,16.00
2023-10-20T16:26:03.679Z,16.00
2023-10-20T16:28:32.408Z,15.90
2023-10-20T16:31:04.815Z,15.90
2023-10-20T16:33:34.969Z,15.90
2023-10-20T16:36:05.499Z,15.90
2023-10-20T16:38:34.489Z,15.90
2023-10-20T16:41:03.280Z,15.90
2023-10-20T16:43:31.908Z,15.80
2023-10-20T16:46:05.226Z,15.80
2023-10-20T16:48:37.080Z,15.80
2023-10-20T16:51:07.261Z,15.80
2023-10-20T16:53:36.737Z,15.70
2023-10-20T16:56:07.576Z,15.70
2023-10-20T16:58:36.553Z,15.70
2023-10-20T17:01:06.166Z,15.70
2023-10-20T17:03:36.005Z,15.70
2023-10-20T17:06:09.490Z,15.70
2023-10-20T17:08:38.311Z,15.70
2023-10-20T17:11:07.267Z,15.60
2023-10-20T17:13:36.216Z,15.60
2023-10-20T17:16:09.049Z,15.60
2023-10-20T17:18:37.884Z,15.50
2023-10-20T17:21:09.382Z,15.50
2023-10-20T17:23:38.495Z,15.50
2023-10-20T17:26:08.023Z,15.50
2023-10-20T17:28:36.686Z,15.40
2023-10-20T17:31:05.915Z,15.40
2023-10-20T17:33:34.921Z,15.40
2023-10-20T17:36:05.542Z,15.40
2023-10-20T17:38:35.931Z,15.30
2023-10-20T17:41:05.116Z,15.30
2023-10-20T17:43:33.752Z,15.30
2023-10-20T17:46:05.036Z,15.30
2023-10-20T17:48:34.199Z,15.30
2023-10-20T17:51:03.221Z,15.20
2023-10-20T17:53:32.791Z,15.30
2023-10-20T17:56:05.376Z,15.20
2023-10-20T17:58:34.687Z,15.20
2023-10-20T18:01:08.929Z,15.20
2023-10-20T18:03:38.096Z,15.20
2023-10-20T18:06:11.021Z,15.10
2023-10-20T18:08:41.937Z,15.10
2023-10-20T18:11:13.363Z,15.10
2023-10-20T18:13:45.492Z,15.10
2023-10-20T18:16:18.509Z,15.10
2023-10-20T18:18:49.380Z,15.00
2023-10-20T18:21:19.200Z,15.00
2023-10-20T18:23:48.986Z,15.00
2023-10-20T18:26:19.249Z,15.00
2023-10-20T18:28:48.632Z,15.00
2023-10-20T18:31:18.624Z,15.00
2023-10-20T18:33:47.829Z,14.90
2023-10-20T18:36:16.481Z,14.90
2023-10-20T18:38:45.117Z,14.90
2023-10-20T18:41:17.432Z,14.90
2023-10-20T18:43:47.858Z,14.90
2023-10-20T18:46:17.020Z,14.80
2023-10-20T18:48:45.929Z,14.80
2023-10-20T18:51:15.047Z,14.80
2023-10-20T18:53:43.917Z,14.90
2023-10-20T18:56:12.955Z,14.80
2023-10-20T18:58:42.340Z,14.80
2023-10-20T19:01:14.561Z,14.80
2023-10-20T19:03:43.264Z,14.70
2023-10-20T19:06:13.995Z,14.70
2023-10-20T19:08:43.166Z,14.80
2023-10-20T19:11:12.370Z,14.70
2023-10-20T19:13:41.473Z,14.70
2023-10-20T19:16:10.241Z,14.70
2023-10-20T19:18:40.875Z,14.70
2023-10-20T19:21:11.939Z,14.70
2023-10-20T19:23:41.814Z,14.70
2023-10-20T19:26:12.388Z,14.70
2023-10-20T19:28:41.126Z,14.70
2023-10-20T19:31:10.870Z,14.60
2023-10-20T19:33:41.188Z,14.60
2023-10-20T19:36:11.420Z,14.60
2023-10-20T19:38:40.358Z,14.60
2023-10-20T19:41:12.735Z,14.60
2023-10-20T19:43:41.474Z,14.50
2023-10-20T19:46:10.183Z,14.50
2023-10-20T19:48:40.314Z,14.50
2023-10-20T19:51:09.245Z,14.50
2023-10-20T19:53:37.981Z,14.50
2023-10-20T19:56:06.716Z,14.50
2023-10-20T19:58:35.533Z,14.40
2023-10-20T20:01:04.518Z,14.40
2023-10-20T20:03:33.684Z,14.40
2023-10-20T20:06:11.317Z,14.40
2023-10-20T20:08:40.278Z,14.40
2023-10-20T20:11:09.400Z,14.40
2023-10-20T20:13:38.579Z,14.40
2023-10-20T20:16:09.710Z,14.40
2023-10-20T20:18:38.604Z,14.40
2023-10-20T20:21:09.699Z,14.40
2023-10-20T20:23:40.096Z,14.40
2023-10-20T20:26:09.765Z,14.30
2023-10-20T20:28:40.636Z,14.30
2023-10-20T20:31:10.747Z,14.30
2023-10-20T20:33:40.146Z,14.30
2023-10-20T20:36:09.221Z,14.30
2023-10-20T20:38:39.326Z,14.30
2023-10-20T20:41:15.997Z,14.30
2023-10-20T20:43:44.810Z,14.30
2023-10-20T20:46:13.596Z,14.20
2023-10-20T20:48:42.500Z,14.30
2023-10-20T20:51:12.637Z,14.30
2023-10-20T20:53:42.839Z,14.30
2023-10-20T20:56:11.857Z,14.20
2023-10-20T20:58:41.104Z,14.20
2023-10-20T21:01:11.175Z,14.20
2023-10-20T21:03:44.382Z,14.20
2023-10-20T21:06:13.843Z,14.20
2023-10-20T21:08:43.942Z,14.20
2023-10-20T21:11:14.190Z,14.20
2023-10-20T21:13:43.694Z,14.20
2023-10-20T21:16:13.391Z,14.20
2023-10-20T21:18:42.498Z,14.20
2023-10-20T21:21:14.016Z,14.20
2023-10-20T21:23:44.806Z,14.20
2023-10-20T21:26:14.106Z,14.20
2023-10-20T21:28:42.820Z,14.20
2023-10-20T21:31:12.878Z,14.20
2023-10-20T21:33:41.632Z,14.10
2023-10-20T21:36:15.404Z,14.10
2023-10-20T21:38:45.739Z,14.10
2023-10-20T21:41:14.472Z,14.10
2023-10-20T21:43:43.135Z,14.10
2023-10-20T21:46:13.222Z,14.10
2023-10-20T21:48:42.067Z,14.10
2023-10-20T21:51:12.599Z,14.10
2023-10-20T21:53:43.840Z,14.10
2023-10-20T21:56:14.207Z,14.10
2023-10-20T21:58:43.242Z,14.10
2023-10-20T22:01:12.335Z,14.10
2023-10-20T22:03:41.904Z,14.10
2023-10-20T22:06:10.826Z,14.10
2023-10-20T22:08:39.692Z,14.10
2023-10-20T22:11:08.816Z,14.10
2023-10-20T22:13:38.973Z,14.10
2023-10-20T22:16:08.112Z,14.10
2023-10-20T22:18:36.898Z,14.10
2023-10-20T22:21:05.765Z,14.10
2023-10-20T22:23:34.821Z,14.10
2023-10-20T22:26:03.534Z,14.10
2023-10-20T22:28:32.795Z,14.10
2023-10-20T22:31:02.877Z,14.10
2023-10-20T22:33:31.725Z,14.10
2023-10-20T22:36:00.375Z,14.10
2023-10-20T22:38:29.033Z,14.10
2023-10-20T22:40:57.569Z,14.00
2023-10-20T22:43:26.165Z,14.10
2023-10-20T22:45:54.724Z,14.10
2023-10-20T22:48:24.921Z,14.10
2023-10-20T22:50:53.699Z,14.00
2023-10-20T22:53:22.345Z,14.10
2023-10-20T22:55:50.946Z,14.10
2023-10-20T22:58:19.578Z,14.10
2023-10-20T23:00:48.259Z,14.10
2023-10-20T23:03:17.057Z,14.10
2023-10-20T23:05:47.088Z,14.10
2023-10-20T23:08:15.824Z,14.10
2023-10-20T23:10:44.599Z,14.10
2023-10-20T23:13:13.212Z,14.10
2023-10-20T23:15:42.536Z,14.10
2023-10-20T23:18:11.373Z,14.10
2023-10-20T23:20:40.340Z,14.10
2023-10-20T23:23:10.356Z,14.10
2023-10-20T23:25:38.990Z,14.10
2023-10-20T23:28:07.728Z,14.20
2023-10-20T23:30:37.676Z,14.20
2023-10-20T23:33:07.285Z,14.20
2023-10-20T23:35:36.324Z,14.10
2023-10-20T23:38:05.243Z,14.20
2023-10-20T23:40:35.226Z,14.20
2023-10-20T23:43:03.926Z,14.10
2023-10-20T23:45:32.655Z,14.10
2023-10-20T23:48:01.456Z,14.10
2023-10-20T23:50:30.181Z,14.20
2023-10-20T23:52:58.787Z,14.20
2023-10-20T23:55:27.994Z,14.20
2023-10-20T23:57:58.265Z,14.20
